<?xml version="1.0" encoding="UTF-8" standalone="no" ?>
<gpx xmlns="http://www.topografix.com/GPX/1/1" xmlns:xsi="http://www.w3.org/2001/XMLSchema-instance" xsi:schemaLocation="http://www.topografix.com/GPX/1/1 http://www.topografix.com/GPX/1/1/gpx.xsd" version="1.1" creator="VisuGPX - https://www.visugpx.com">
  <metadata>
    <name>20160531- Vif</name>
    <desc><![CDATA[Sortie géologique entre les saillants du Gua et Vif ]]></desc>
  </metadata>
  <trk>
    <name><![CDATA[20160531- Vif_1]]></name>
    <trkseg>
      <trkpt lat="45.0308" lon="5.63453">
        <ele>670</ele>
        <time>2016-05-31T08:05:57.07Z</time>
      </trkpt>
      <trkpt lat="45.03078" lon="5.63451">
        <ele>661</ele>
        <time>2016-05-31T08:06:57.07Z</time>
      </trkpt>
      <trkpt lat="45.03111" lon="5.63445">
        <ele>661</ele>
        <time>2016-05-31T08:07:18.066Z</time>
      </trkpt>
      <trkpt lat="45.03136" lon="5.63395">
        <ele>669</ele>
        <time>2016-05-31T08:08:18.066Z</time>
      </trkpt>
      <trkpt lat="45.03158" lon="5.63375">
        <ele>678</ele>
        <time>2016-05-31T08:09:18.07Z</time>
      </trkpt>
      <trkpt lat="45.03169" lon="5.63381">
        <ele>683</ele>
        <time>2016-05-31T08:10:18.07Z</time>
      </trkpt>
      <trkpt lat="45.03171" lon="5.63392">
        <ele>687</ele>
        <time>2016-05-31T08:11:18.07Z</time>
      </trkpt>
      <trkpt lat="45.03171" lon="5.63392">
        <ele>687</ele>
        <time>2016-05-31T08:12:18.07Z</time>
      </trkpt>
      <trkpt lat="45.03171" lon="5.63392">
        <ele>687</ele>
        <time>2016-05-31T08:13:18.07Z</time>
      </trkpt>
      <trkpt lat="45.03171" lon="5.63392">
        <ele>687</ele>
        <time>2016-05-31T08:14:18.07Z</time>
      </trkpt>
      <trkpt lat="45.03171" lon="5.63392">
        <ele>688</ele>
        <time>2016-05-31T08:15:18.07Z</time>
      </trkpt>
      <trkpt lat="45.0317" lon="5.634">
        <ele>689</ele>
        <time>2016-05-31T08:16:18.071Z</time>
      </trkpt>
      <trkpt lat="45.03169" lon="5.634">
        <ele>689</ele>
        <time>2016-05-31T08:17:18.071Z</time>
      </trkpt>
      <trkpt lat="45.03169" lon="5.634">
        <ele>690</ele>
        <time>2016-05-31T08:18:19.068Z</time>
      </trkpt>
      <trkpt lat="45.03169" lon="5.634">
        <ele>690</ele>
        <time>2016-05-31T08:19:19.071Z</time>
      </trkpt>
      <trkpt lat="45.03169" lon="5.634">
        <ele>690</ele>
        <time>2016-05-31T08:20:20.07Z</time>
      </trkpt>
      <trkpt lat="45.03169" lon="5.634">
        <ele>690</ele>
        <time>2016-05-31T08:21:20.071Z</time>
      </trkpt>
      <trkpt lat="45.03169" lon="5.634">
        <ele>691</ele>
        <time>2016-05-31T08:22:21.07Z</time>
      </trkpt>
      <trkpt lat="45.03169" lon="5.634">
        <ele>691</ele>
        <time>2016-05-31T08:23:21.074Z</time>
      </trkpt>
      <trkpt lat="45.03173" lon="5.63401">
        <ele>684</ele>
        <time>2016-05-31T08:24:21.074Z</time>
      </trkpt>
      <trkpt lat="45.03173" lon="5.63401">
        <ele>685</ele>
        <time>2016-05-31T08:25:21.074Z</time>
      </trkpt>
      <trkpt lat="45.03171" lon="5.63401">
        <ele>690</ele>
        <time>2016-05-31T08:26:22.07Z</time>
      </trkpt>
      <trkpt lat="45.03167" lon="5.63405">
        <ele>696</ele>
        <time>2016-05-31T08:27:22.074Z</time>
      </trkpt>
      <trkpt lat="45.03143" lon="5.63374">
        <ele>704</ele>
        <time>2016-05-31T08:28:23.068Z</time>
      </trkpt>
      <trkpt lat="45.03138" lon="5.63351">
        <ele>706</ele>
        <time>2016-05-31T08:29:23.07Z</time>
      </trkpt>
      <trkpt lat="45.03142" lon="5.63341">
        <ele>701</ele>
        <time>2016-05-31T08:30:23.07Z</time>
      </trkpt>
      <trkpt lat="45.03145" lon="5.63319">
        <ele>709</ele>
        <time>2016-05-31T08:31:23.074Z</time>
      </trkpt>
      <trkpt lat="45.03149" lon="5.63321">
        <ele>708</ele>
        <time>2016-05-31T08:32:24.074Z</time>
      </trkpt>
      <trkpt lat="45.03148" lon="5.63315">
        <ele>708</ele>
        <time>2016-05-31T08:33:24.074Z</time>
      </trkpt>
      <trkpt lat="45.03146" lon="5.63319">
        <ele>709</ele>
        <time>2016-05-31T08:34:25.073Z</time>
      </trkpt>
      <trkpt lat="45.0314" lon="5.63317">
        <ele>709</ele>
        <time>2016-05-31T08:35:25.074Z</time>
      </trkpt>
      <trkpt lat="45.0314" lon="5.63318">
        <ele>709</ele>
        <time>2016-05-31T08:36:26.074Z</time>
      </trkpt>
      <trkpt lat="45.03157" lon="5.63299">
        <ele>707</ele>
        <time>2016-05-31T08:37:26.075Z</time>
      </trkpt>
      <trkpt lat="45.03173" lon="5.63296">
        <ele>718</ele>
        <time>2016-05-31T08:38:27.075Z</time>
      </trkpt>
      <trkpt lat="45.03172" lon="5.63291">
        <ele>719</ele>
        <time>2016-05-31T08:39:28.075Z</time>
      </trkpt>
      <trkpt lat="45.03173" lon="5.63291">
        <ele>719</ele>
        <time>2016-05-31T08:40:28.075Z</time>
      </trkpt>
      <trkpt lat="45.03173" lon="5.63291">
        <ele>719</ele>
        <time>2016-05-31T08:41:29.074Z</time>
      </trkpt>
      <trkpt lat="45.03173" lon="5.63291">
        <ele>719</ele>
        <time>2016-05-31T08:42:29.074Z</time>
      </trkpt>
      <trkpt lat="45.03173" lon="5.63291">
        <ele>720</ele>
        <time>2016-05-31T08:43:29.074Z</time>
      </trkpt>
      <trkpt lat="45.03171" lon="5.63284">
        <ele>721</ele>
        <time>2016-05-31T08:44:29.075Z</time>
      </trkpt>
      <trkpt lat="45.03185" lon="5.63273">
        <ele>722</ele>
        <time>2016-05-31T08:45:29.075Z</time>
      </trkpt>
      <trkpt lat="45.03231" lon="5.63277">
        <ele>736</ele>
        <time>2016-05-31T08:46:18.073Z</time>
      </trkpt>
      <trkpt lat="45.03263" lon="5.63286">
        <ele>739</ele>
        <time>2016-05-31T08:47:18.08Z</time>
      </trkpt>
      <trkpt lat="45.03285" lon="5.63299">
        <ele>740</ele>
        <time>2016-05-31T08:47:34.07Z</time>
      </trkpt>
      <trkpt lat="45.03309" lon="5.63275">
        <ele>740</ele>
        <time>2016-05-31T08:48:34.07Z</time>
      </trkpt>
      <trkpt lat="45.03314" lon="5.63252">
        <ele>740</ele>
        <time>2016-05-31T08:49:34.075Z</time>
      </trkpt>
      <trkpt lat="45.03313" lon="5.63253">
        <ele>739</ele>
        <time>2016-05-31T08:50:34.075Z</time>
      </trkpt>
      <trkpt lat="45.03313" lon="5.63253">
        <ele>739</ele>
        <time>2016-05-31T08:51:34.075Z</time>
      </trkpt>
      <trkpt lat="45.03313" lon="5.63253">
        <ele>738</ele>
        <time>2016-05-31T08:52:34.078Z</time>
      </trkpt>
      <trkpt lat="45.03313" lon="5.63253">
        <ele>739</ele>
        <time>2016-05-31T08:53:34.08Z</time>
      </trkpt>
      <trkpt lat="45.03313" lon="5.63253">
        <ele>739</ele>
        <time>2016-05-31T08:54:35.075Z</time>
      </trkpt>
      <trkpt lat="45.03313" lon="5.63252">
        <ele>739</ele>
        <time>2016-05-31T08:55:35.075Z</time>
      </trkpt>
      <trkpt lat="45.03313" lon="5.63252">
        <ele>739</ele>
        <time>2016-05-31T08:56:35.075Z</time>
      </trkpt>
      <trkpt lat="45.03313" lon="5.63252">
        <ele>739</ele>
        <time>2016-05-31T08:57:35.075Z</time>
      </trkpt>
      <trkpt lat="45.03313" lon="5.63252">
        <ele>739</ele>
        <time>2016-05-31T08:58:35.075Z</time>
      </trkpt>
      <trkpt lat="45.03313" lon="5.63252">
        <ele>739</ele>
        <time>2016-05-31T08:59:36.073Z</time>
      </trkpt>
      <trkpt lat="45.03313" lon="5.63252">
        <ele>739</ele>
        <time>2016-05-31T09:00:37.074Z</time>
      </trkpt>
      <trkpt lat="45.03313" lon="5.63252">
        <ele>739</ele>
        <time>2016-05-31T09:01:37.075Z</time>
      </trkpt>
      <trkpt lat="45.03313" lon="5.63252">
        <ele>739</ele>
        <time>2016-05-31T09:02:37.075Z</time>
      </trkpt>
      <trkpt lat="45.03313" lon="5.63252">
        <ele>739</ele>
        <time>2016-05-31T09:03:37.075Z</time>
      </trkpt>
      <trkpt lat="45.03313" lon="5.63252">
        <ele>739</ele>
        <time>2016-05-31T09:04:37.075Z</time>
      </trkpt>
      <trkpt lat="45.03313" lon="5.63253">
        <ele>739</ele>
        <time>2016-05-31T09:05:37.075Z</time>
      </trkpt>
      <trkpt lat="45.03312" lon="5.63253">
        <ele>739</ele>
        <time>2016-05-31T09:06:37.08Z</time>
      </trkpt>
      <trkpt lat="45.03317" lon="5.63252">
        <ele>744</ele>
        <time>2016-05-31T09:07:38.073Z</time>
      </trkpt>
      <trkpt lat="45.03317" lon="5.63252">
        <ele>744</ele>
        <time>2016-05-31T09:08:38.073Z</time>
      </trkpt>
      <trkpt lat="45.03317" lon="5.63252">
        <ele>744</ele>
        <time>2016-05-31T09:09:38.075Z</time>
      </trkpt>
      <trkpt lat="45.03317" lon="5.63252">
        <ele>744</ele>
        <time>2016-05-31T09:10:39.074Z</time>
      </trkpt>
      <trkpt lat="45.03317" lon="5.63252">
        <ele>744</ele>
        <time>2016-05-31T09:11:39.074Z</time>
      </trkpt>
      <trkpt lat="45.03317" lon="5.63252">
        <ele>744</ele>
        <time>2016-05-31T09:12:40.073Z</time>
      </trkpt>
      <trkpt lat="45.03317" lon="5.63252">
        <ele>744</ele>
        <time>2016-05-31T09:13:40.074Z</time>
      </trkpt>
      <trkpt lat="45.03318" lon="5.63252">
        <ele>744</ele>
        <time>2016-05-31T09:14:41.073Z</time>
      </trkpt>
      <trkpt lat="45.0331" lon="5.63264">
        <ele>736</ele>
        <time>2016-05-31T09:15:42.069Z</time>
      </trkpt>
      <trkpt lat="45.03304" lon="5.63286">
        <ele>731</ele>
        <time>2016-05-31T09:16:05.07Z</time>
      </trkpt>
      <trkpt lat="45.03315" lon="5.63334">
        <ele>743</ele>
        <time>2016-05-31T09:17:06.07Z</time>
      </trkpt>
      <trkpt lat="45.03337" lon="5.63358">
        <ele>740</ele>
        <time>2016-05-31T09:18:06.074Z</time>
      </trkpt>
      <trkpt lat="45.03337" lon="5.63358">
        <ele>740</ele>
        <time>2016-05-31T09:19:06.074Z</time>
      </trkpt>
      <trkpt lat="45.0336" lon="5.63372">
        <ele>751</ele>
        <time>2016-05-31T09:20:07.071Z</time>
      </trkpt>
      <trkpt lat="45.03401" lon="5.63396">
        <ele>772</ele>
        <time>2016-05-31T09:21:08.068Z</time>
      </trkpt>
      <trkpt lat="45.03443" lon="5.63419">
        <ele>767</ele>
        <time>2016-05-31T09:21:52.07Z</time>
      </trkpt>
      <trkpt lat="45.0348" lon="5.6345">
        <ele>769</ele>
        <time>2016-05-31T09:22:52.07Z</time>
      </trkpt>
      <trkpt lat="45.03518" lon="5.63479">
        <ele>771</ele>
        <time>2016-05-31T09:23:52.071Z</time>
      </trkpt>
      <trkpt lat="45.0356" lon="5.63506">
        <ele>781</ele>
        <time>2016-05-31T09:24:53.068Z</time>
      </trkpt>
      <trkpt lat="45.03606" lon="5.63518">
        <ele>790</ele>
        <time>2016-05-31T09:25:50.07Z</time>
      </trkpt>
      <trkpt lat="45.03638" lon="5.63533">
        <ele>798</ele>
        <time>2016-05-31T09:26:50.071Z</time>
      </trkpt>
      <trkpt lat="45.03667" lon="5.63536">
        <ele>811</ele>
        <time>2016-05-31T09:27:50.073Z</time>
      </trkpt>
      <trkpt lat="45.03702" lon="5.63545">
        <ele>823</ele>
        <time>2016-05-31T09:28:50.074Z</time>
      </trkpt>
      <trkpt lat="45.03735" lon="5.63551">
        <ele>835</ele>
        <time>2016-05-31T09:29:51.074Z</time>
      </trkpt>
      <trkpt lat="45.03732" lon="5.63579">
        <ele>855</ele>
        <time>2016-05-31T09:30:52.07Z</time>
      </trkpt>
      <trkpt lat="45.03703" lon="5.63616">
        <ele>871</ele>
        <time>2016-05-31T09:31:52.07Z</time>
      </trkpt>
      <trkpt lat="45.03676" lon="5.63657">
        <ele>881</ele>
        <time>2016-05-31T09:32:53.07Z</time>
      </trkpt>
      <trkpt lat="45.03641" lon="5.63691">
        <ele>897</ele>
        <time>2016-05-31T09:33:53.07Z</time>
      </trkpt>
      <trkpt lat="45.03616" lon="5.63702">
        <ele>902</ele>
        <time>2016-05-31T09:34:53.07Z</time>
      </trkpt>
      <trkpt lat="45.03578" lon="5.63706">
        <ele>897</ele>
        <time>2016-05-31T09:35:53.07Z</time>
      </trkpt>
      <trkpt lat="45.03533" lon="5.63696">
        <ele>906</ele>
        <time>2016-05-31T09:36:47.078Z</time>
      </trkpt>
      <trkpt lat="45.03507" lon="5.63697">
        <ele>912</ele>
        <time>2016-05-31T09:37:47.083Z</time>
      </trkpt>
      <trkpt lat="45.03507" lon="5.63703">
        <ele>916</ele>
        <time>2016-05-31T09:38:48.076Z</time>
      </trkpt>
      <trkpt lat="45.03507" lon="5.63703">
        <ele>916</ele>
        <time>2016-05-31T09:39:49.075Z</time>
      </trkpt>
      <trkpt lat="45.03528" lon="5.63726">
        <ele>919</ele>
        <time>2016-05-31T09:40:50.071Z</time>
      </trkpt>
      <trkpt lat="45.03553" lon="5.63778">
        <ele>928</ele>
        <time>2016-05-31T09:41:50.073Z</time>
      </trkpt>
      <trkpt lat="45.03574" lon="5.63816">
        <ele>929</ele>
        <time>2016-05-31T09:42:51.07Z</time>
      </trkpt>
      <trkpt lat="45.03597" lon="5.63845">
        <ele>925</ele>
        <time>2016-05-31T09:43:31.07Z</time>
      </trkpt>
      <trkpt lat="45.03622" lon="5.6386">
        <ele>919</ele>
        <time>2016-05-31T09:44:07.071Z</time>
      </trkpt>
      <trkpt lat="45.03652" lon="5.63889">
        <ele>932</ele>
        <time>2016-05-31T09:45:07.071Z</time>
      </trkpt>
      <trkpt lat="45.03688" lon="5.63926">
        <ele>940</ele>
        <time>2016-05-31T09:46:08.07Z</time>
      </trkpt>
      <trkpt lat="45.03696" lon="5.63934">
        <ele>945</ele>
        <time>2016-05-31T09:47:08.075Z</time>
      </trkpt>
      <trkpt lat="45.03697" lon="5.63934">
        <ele>945</ele>
        <time>2016-05-31T09:48:08.075Z</time>
      </trkpt>
      <trkpt lat="45.03695" lon="5.63933">
        <ele>945</ele>
        <time>2016-05-31T09:49:09.073Z</time>
      </trkpt>
      <trkpt lat="45.03694" lon="5.63933">
        <ele>943</ele>
        <time>2016-05-31T09:50:09.074Z</time>
      </trkpt>
      <trkpt lat="45.03694" lon="5.63932">
        <ele>943</ele>
        <time>2016-05-31T09:51:09.079Z</time>
      </trkpt>
      <trkpt lat="45.03694" lon="5.63933">
        <ele>943</ele>
        <time>2016-05-31T09:52:10.07Z</time>
      </trkpt>
      <trkpt lat="45.03694" lon="5.63932">
        <ele>943</ele>
        <time>2016-05-31T09:53:10.07Z</time>
      </trkpt>
      <trkpt lat="45.03694" lon="5.63932">
        <ele>943</ele>
        <time>2016-05-31T09:54:10.07Z</time>
      </trkpt>
      <trkpt lat="45.03694" lon="5.63932">
        <ele>943</ele>
        <time>2016-05-31T09:55:10.071Z</time>
      </trkpt>
      <trkpt lat="45.03694" lon="5.63932">
        <ele>943</ele>
        <time>2016-05-31T09:56:10.073Z</time>
      </trkpt>
      <trkpt lat="45.03694" lon="5.63932">
        <ele>943</ele>
        <time>2016-05-31T09:57:11.07Z</time>
      </trkpt>
      <trkpt lat="45.03694" lon="5.63932">
        <ele>943</ele>
        <time>2016-05-31T09:58:11.071Z</time>
      </trkpt>
      <trkpt lat="45.03694" lon="5.63932">
        <ele>943</ele>
        <time>2016-05-31T09:59:11.073Z</time>
      </trkpt>
      <trkpt lat="45.03697" lon="5.63933">
        <ele>934</ele>
        <time>2016-05-31T10:00:11.074Z</time>
      </trkpt>
      <trkpt lat="45.03697" lon="5.63933">
        <ele>934</ele>
        <time>2016-05-31T10:01:11.074Z</time>
      </trkpt>
      <trkpt lat="45.03697" lon="5.63933">
        <ele>934</ele>
        <time>2016-05-31T10:02:11.098Z</time>
      </trkpt>
      <trkpt lat="45.03698" lon="5.63933">
        <ele>934</ele>
        <time>2016-05-31T10:03:12.078Z</time>
      </trkpt>
      <trkpt lat="45.03698" lon="5.63933">
        <ele>934</ele>
        <time>2016-05-31T10:04:13.071Z</time>
      </trkpt>
      <trkpt lat="45.03698" lon="5.63933">
        <ele>934</ele>
        <time>2016-05-31T10:05:13.081Z</time>
      </trkpt>
      <trkpt lat="45.03698" lon="5.63933">
        <ele>934</ele>
        <time>2016-05-31T10:06:14.074Z</time>
      </trkpt>
      <trkpt lat="45.03698" lon="5.63933">
        <ele>935</ele>
        <time>2016-05-31T10:07:14.074Z</time>
      </trkpt>
      <trkpt lat="45.03698" lon="5.63933">
        <ele>935</ele>
        <time>2016-05-31T10:08:14.074Z</time>
      </trkpt>
      <trkpt lat="45.03698" lon="5.63933">
        <ele>935</ele>
        <time>2016-05-31T10:09:14.075Z</time>
      </trkpt>
      <trkpt lat="45.03698" lon="5.63933">
        <ele>935</ele>
        <time>2016-05-31T10:10:15.074Z</time>
      </trkpt>
      <trkpt lat="45.03698" lon="5.63933">
        <ele>935</ele>
        <time>2016-05-31T10:11:15.074Z</time>
      </trkpt>
      <trkpt lat="45.03698" lon="5.63932">
        <ele>935</ele>
        <time>2016-05-31T10:12:15.074Z</time>
      </trkpt>
      <trkpt lat="45.03698" lon="5.63932">
        <ele>935</ele>
        <time>2016-05-31T10:13:15.074Z</time>
      </trkpt>
      <trkpt lat="45.03698" lon="5.63932">
        <ele>935</ele>
        <time>2016-05-31T10:14:15.074Z</time>
      </trkpt>
      <trkpt lat="45.03698" lon="5.63932">
        <ele>935</ele>
        <time>2016-05-31T10:15:15.075Z</time>
      </trkpt>
      <trkpt lat="45.03698" lon="5.63932">
        <ele>935</ele>
        <time>2016-05-31T10:16:16.074Z</time>
      </trkpt>
      <trkpt lat="45.03698" lon="5.63932">
        <ele>935</ele>
        <time>2016-05-31T10:17:16.074Z</time>
      </trkpt>
      <trkpt lat="45.03698" lon="5.63932">
        <ele>935</ele>
        <time>2016-05-31T10:18:16.083Z</time>
      </trkpt>
      <trkpt lat="45.03698" lon="5.63932">
        <ele>935</ele>
        <time>2016-05-31T10:19:17.075Z</time>
      </trkpt>
      <trkpt lat="45.03699" lon="5.6393">
        <ele>938</ele>
        <time>2016-05-31T10:20:17.075Z</time>
      </trkpt>
      <trkpt lat="45.03699" lon="5.6393">
        <ele>938</ele>
        <time>2016-05-31T10:21:18.073Z</time>
      </trkpt>
      <trkpt lat="45.03699" lon="5.6393">
        <ele>938</ele>
        <time>2016-05-31T10:22:18.075Z</time>
      </trkpt>
      <trkpt lat="45.03699" lon="5.6393">
        <ele>938</ele>
        <time>2016-05-31T10:23:18.078Z</time>
      </trkpt>
      <trkpt lat="45.03699" lon="5.6393">
        <ele>938</ele>
        <time>2016-05-31T10:24:19.078Z</time>
      </trkpt>
      <trkpt lat="45.03699" lon="5.6393">
        <ele>938</ele>
        <time>2016-05-31T10:25:20.073Z</time>
      </trkpt>
      <trkpt lat="45.03699" lon="5.6393">
        <ele>938</ele>
        <time>2016-05-31T10:26:20.075Z</time>
      </trkpt>
      <trkpt lat="45.03699" lon="5.6393">
        <ele>938</ele>
        <time>2016-05-31T10:27:20.075Z</time>
      </trkpt>
      <trkpt lat="45.03699" lon="5.63931">
        <ele>938</ele>
        <time>2016-05-31T10:28:21.071Z</time>
      </trkpt>
      <trkpt lat="45.03699" lon="5.63931">
        <ele>938</ele>
        <time>2016-05-31T10:29:21.11Z</time>
      </trkpt>
      <trkpt lat="45.03699" lon="5.63931">
        <ele>938</ele>
        <time>2016-05-31T10:30:22.071Z</time>
      </trkpt>
      <trkpt lat="45.03699" lon="5.63931">
        <ele>939</ele>
        <time>2016-05-31T10:31:22.073Z</time>
      </trkpt>
      <trkpt lat="45.03699" lon="5.63931">
        <ele>939</ele>
        <time>2016-05-31T10:32:22.073Z</time>
      </trkpt>
      <trkpt lat="45.03699" lon="5.63931">
        <ele>939</ele>
        <time>2016-05-31T10:33:23.071Z</time>
      </trkpt>
      <trkpt lat="45.03699" lon="5.63931">
        <ele>939</ele>
        <time>2016-05-31T10:34:23.071Z</time>
      </trkpt>
      <trkpt lat="45.03699" lon="5.63931">
        <ele>939</ele>
        <time>2016-05-31T10:35:23.074Z</time>
      </trkpt>
      <trkpt lat="45.03699" lon="5.63931">
        <ele>939</ele>
        <time>2016-05-31T10:36:23.075Z</time>
      </trkpt>
      <trkpt lat="45.03699" lon="5.63931">
        <ele>939</ele>
        <time>2016-05-31T10:37:23.075Z</time>
      </trkpt>
      <trkpt lat="45.03699" lon="5.63931">
        <ele>939</ele>
        <time>2016-05-31T10:38:24.074Z</time>
      </trkpt>
      <trkpt lat="45.03698" lon="5.63931">
        <ele>939</ele>
        <time>2016-05-31T10:39:24.074Z</time>
      </trkpt>
      <trkpt lat="45.03698" lon="5.63931">
        <ele>939</ele>
        <time>2016-05-31T10:40:25.071Z</time>
      </trkpt>
      <trkpt lat="45.03698" lon="5.63932">
        <ele>938</ele>
        <time>2016-05-31T10:41:25.075Z</time>
      </trkpt>
      <trkpt lat="45.03698" lon="5.63932">
        <ele>938</ele>
        <time>2016-05-31T10:42:25.075Z</time>
      </trkpt>
      <trkpt lat="45.03698" lon="5.63932">
        <ele>938</ele>
        <time>2016-05-31T10:43:26.075Z</time>
      </trkpt>
      <trkpt lat="45.03694" lon="5.63934">
        <ele>939</ele>
        <time>2016-05-31T10:44:27.07Z</time>
      </trkpt>
      <trkpt lat="45.03718" lon="5.6394">
        <ele>940</ele>
        <time>2016-05-31T10:45:27.07Z</time>
      </trkpt>
      <trkpt lat="45.03751" lon="5.63955">
        <ele>941</ele>
        <time>2016-05-31T10:46:28.068Z</time>
      </trkpt>
      <trkpt lat="45.03762" lon="5.63954">
        <ele>942</ele>
        <time>2016-05-31T10:47:28.085Z</time>
      </trkpt>
      <trkpt lat="45.0377" lon="5.63977">
        <ele>937</ele>
        <time>2016-05-31T10:48:29.075Z</time>
      </trkpt>
      <trkpt lat="45.03778" lon="5.63998">
        <ele>929</ele>
        <time>2016-05-31T10:48:58.066Z</time>
      </trkpt>
      <trkpt lat="45.03792" lon="5.6401">
        <ele>928</ele>
        <time>2016-05-31T10:49:18.066Z</time>
      </trkpt>
      <trkpt lat="45.03806" lon="5.64012">
        <ele>924</ele>
        <time>2016-05-31T10:49:32.068Z</time>
      </trkpt>
      <trkpt lat="45.03852" lon="5.64013">
        <ele>927</ele>
        <time>2016-05-31T10:50:19.069Z</time>
      </trkpt>
      <trkpt lat="45.03891" lon="5.64044">
        <ele>925</ele>
        <time>2016-05-31T10:51:11.07Z</time>
      </trkpt>
      <trkpt lat="45.03929" lon="5.64083">
        <ele>916</ele>
        <time>2016-05-31T10:52:11.07Z</time>
      </trkpt>
      <trkpt lat="45.03957" lon="5.64141">
        <ele>908</ele>
        <time>2016-05-31T10:52:59.065Z</time>
      </trkpt>
      <trkpt lat="45.03969" lon="5.64153">
        <ele>905</ele>
        <time>2016-05-31T10:53:08.066Z</time>
      </trkpt>
      <trkpt lat="45.04005" lon="5.64193">
        <ele>891</ele>
        <time>2016-05-31T10:53:47.066Z</time>
      </trkpt>
      <trkpt lat="45.04036" lon="5.6424">
        <ele>879</ele>
        <time>2016-05-31T10:54:28.068Z</time>
      </trkpt>
      <trkpt lat="45.04049" lon="5.64259">
        <ele>876</ele>
        <time>2016-05-31T10:54:40.07Z</time>
      </trkpt>
      <trkpt lat="45.04063" lon="5.64268">
        <ele>872</ele>
        <time>2016-05-31T10:54:55.068Z</time>
      </trkpt>
      <trkpt lat="45.04074" lon="5.6428">
        <ele>871</ele>
        <time>2016-05-31T10:55:10.069Z</time>
      </trkpt>
      <trkpt lat="45.04092" lon="5.64298">
        <ele>879</ele>
        <time>2016-05-31T10:55:38.065Z</time>
      </trkpt>
      <trkpt lat="45.04134" lon="5.64322">
        <ele>872</ele>
        <time>2016-05-31T10:56:21.069Z</time>
      </trkpt>
      <trkpt lat="45.04151" lon="5.64325">
        <ele>870</ele>
        <time>2016-05-31T10:56:35.07Z</time>
      </trkpt>
      <trkpt lat="45.04211" lon="5.64335">
        <ele>871</ele>
        <time>2016-05-31T10:57:27.07Z</time>
      </trkpt>
      <trkpt lat="45.04261" lon="5.64332">
        <ele>883</ele>
        <time>2016-05-31T10:58:17.069Z</time>
      </trkpt>
      <trkpt lat="45.0429" lon="5.64338">
        <ele>885</ele>
        <time>2016-05-31T10:59:17.07Z</time>
      </trkpt>
      <trkpt lat="45.04336" lon="5.64351">
        <ele>888</ele>
        <time>2016-05-31T11:00:11.09Z</time>
      </trkpt>
      <trkpt lat="45.0436" lon="5.64386">
        <ele>880</ele>
        <time>2016-05-31T11:00:39.068Z</time>
      </trkpt>
      <trkpt lat="45.04391" lon="5.64405">
        <ele>876</ele>
        <time>2016-05-31T11:01:09.065Z</time>
      </trkpt>
      <trkpt lat="45.044" lon="5.6442">
        <ele>879</ele>
        <time>2016-05-31T11:01:26.066Z</time>
      </trkpt>
      <trkpt lat="45.04414" lon="5.64439">
        <ele>876</ele>
        <time>2016-05-31T11:01:38.074Z</time>
      </trkpt>
      <trkpt lat="45.04444" lon="5.64455">
        <ele>875</ele>
        <time>2016-05-31T11:02:39.069Z</time>
      </trkpt>
      <trkpt lat="45.04442" lon="5.64475">
        <ele>871</ele>
        <time>2016-05-31T11:02:51.065Z</time>
      </trkpt>
      <trkpt lat="45.04445" lon="5.64494">
        <ele>871</ele>
        <time>2016-05-31T11:03:02.064Z</time>
      </trkpt>
      <trkpt lat="45.0445" lon="5.64513">
        <ele>871</ele>
        <time>2016-05-31T11:03:14.066Z</time>
      </trkpt>
      <trkpt lat="45.04455" lon="5.64543">
        <ele>869</ele>
        <time>2016-05-31T11:03:32.066Z</time>
      </trkpt>
      <trkpt lat="45.04463" lon="5.64559">
        <ele>865</ele>
        <time>2016-05-31T11:03:42.068Z</time>
      </trkpt>
      <trkpt lat="45.04475" lon="5.64573">
        <ele>865</ele>
        <time>2016-05-31T11:03:53.068Z</time>
      </trkpt>
      <trkpt lat="45.04506" lon="5.64622">
        <ele>868</ele>
        <time>2016-05-31T11:04:39.068Z</time>
      </trkpt>
      <trkpt lat="45.0452" lon="5.64624">
        <ele>866</ele>
        <time>2016-05-31T11:04:45.065Z</time>
      </trkpt>
      <trkpt lat="45.04568" lon="5.64647">
        <ele>862</ele>
        <time>2016-05-31T11:05:35.069Z</time>
      </trkpt>
      <trkpt lat="45.04587" lon="5.64662">
        <ele>862</ele>
        <time>2016-05-31T11:06:03.066Z</time>
      </trkpt>
      <trkpt lat="45.04597" lon="5.64677">
        <ele>861</ele>
        <time>2016-05-31T11:06:19.066Z</time>
      </trkpt>
      <trkpt lat="45.0461" lon="5.64687">
        <ele>855</ele>
        <time>2016-05-31T11:06:31.069Z</time>
      </trkpt>
      <trkpt lat="45.04622" lon="5.64697">
        <ele>850</ele>
        <time>2016-05-31T11:06:40.069Z</time>
      </trkpt>
      <trkpt lat="45.04634" lon="5.64711">
        <ele>849</ele>
        <time>2016-05-31T11:06:59.07Z</time>
      </trkpt>
      <trkpt lat="45.04657" lon="5.64719">
        <ele>841</ele>
        <time>2016-05-31T11:07:29.068Z</time>
      </trkpt>
      <trkpt lat="45.04677" lon="5.6472">
        <ele>843</ele>
        <time>2016-05-31T11:07:45.073Z</time>
      </trkpt>
      <trkpt lat="45.04692" lon="5.64758">
        <ele>846</ele>
        <time>2016-05-31T11:08:19.066Z</time>
      </trkpt>
      <trkpt lat="45.04709" lon="5.64791">
        <ele>843</ele>
        <time>2016-05-31T11:08:43.068Z</time>
      </trkpt>
      <trkpt lat="45.0472" lon="5.64825">
        <ele>841</ele>
        <time>2016-05-31T11:09:07.066Z</time>
      </trkpt>
      <trkpt lat="45.04727" lon="5.64857">
        <ele>839</ele>
        <time>2016-05-31T11:09:26.066Z</time>
      </trkpt>
      <trkpt lat="45.04738" lon="5.64876">
        <ele>844</ele>
        <time>2016-05-31T11:09:44.065Z</time>
      </trkpt>
      <trkpt lat="45.04749" lon="5.64894">
        <ele>830</ele>
        <time>2016-05-31T11:09:53.066Z</time>
      </trkpt>
      <trkpt lat="45.04762" lon="5.64902">
        <ele>825</ele>
        <time>2016-05-31T11:10:00.066Z</time>
      </trkpt>
      <trkpt lat="45.04771" lon="5.64917">
        <ele>824</ele>
        <time>2016-05-31T11:10:14.068Z</time>
      </trkpt>
      <trkpt lat="45.04771" lon="5.64939">
        <ele>826</ele>
        <time>2016-05-31T11:10:33.065Z</time>
      </trkpt>
      <trkpt lat="45.04765" lon="5.64956">
        <ele>823</ele>
        <time>2016-05-31T11:10:45.069Z</time>
      </trkpt>
      <trkpt lat="45.04763" lon="5.64981">
        <ele>816</ele>
        <time>2016-05-31T11:10:59.068Z</time>
      </trkpt>
      <trkpt lat="45.04753" lon="5.64969">
        <ele>808</ele>
        <time>2016-05-31T11:11:59.078Z</time>
      </trkpt>
      <trkpt lat="45.04759" lon="5.64985">
        <ele>815</ele>
        <time>2016-05-31T11:13:00.066Z</time>
      </trkpt>
      <trkpt lat="45.04765" lon="5.6498">
        <ele>819</ele>
        <time>2016-05-31T11:14:00.07Z</time>
      </trkpt>
      <trkpt lat="45.04764" lon="5.64988">
        <ele>816</ele>
        <time>2016-05-31T11:15:01.07Z</time>
      </trkpt>
      <trkpt lat="45.04756" lon="5.64981">
        <ele>818</ele>
        <time>2016-05-31T11:16:02.069Z</time>
      </trkpt>
      <trkpt lat="45.04758" lon="5.64985">
        <ele>815</ele>
        <time>2016-05-31T11:17:02.071Z</time>
      </trkpt>
      <trkpt lat="45.04769" lon="5.65003">
        <ele>817</ele>
        <time>2016-05-31T11:17:39.09Z</time>
      </trkpt>
      <trkpt lat="45.0478" lon="5.65017">
        <ele>815</ele>
        <time>2016-05-31T11:17:51.069Z</time>
      </trkpt>
      <trkpt lat="45.04805" lon="5.65056">
        <ele>808</ele>
        <time>2016-05-31T11:18:51.071Z</time>
      </trkpt>
      <trkpt lat="45.04845" lon="5.65091">
        <ele>804</ele>
        <time>2016-05-31T11:19:41.065Z</time>
      </trkpt>
      <trkpt lat="45.04871" lon="5.65092">
        <ele>799</ele>
        <time>2016-05-31T11:20:18.066Z</time>
      </trkpt>
      <trkpt lat="45.04884" lon="5.651">
        <ele>794</ele>
        <time>2016-05-31T11:20:28.068Z</time>
      </trkpt>
      <trkpt lat="45.04902" lon="5.65124">
        <ele>791</ele>
        <time>2016-05-31T11:20:56.07Z</time>
      </trkpt>
      <trkpt lat="45.04928" lon="5.65182">
        <ele>775</ele>
        <time>2016-05-31T11:21:54.069Z</time>
      </trkpt>
      <trkpt lat="45.0494" lon="5.65196">
        <ele>769</ele>
        <time>2016-05-31T11:22:02.066Z</time>
      </trkpt>
      <trkpt lat="45.04951" lon="5.65207">
        <ele>767</ele>
        <time>2016-05-31T11:22:15.066Z</time>
      </trkpt>
      <trkpt lat="45.04971" lon="5.65212">
        <ele>765</ele>
        <time>2016-05-31T11:22:45.068Z</time>
      </trkpt>
      <trkpt lat="45.04986" lon="5.6523">
        <ele>760</ele>
        <time>2016-05-31T11:22:56.068Z</time>
      </trkpt>
      <trkpt lat="45.04993" lon="5.65248">
        <ele>758</ele>
        <time>2016-05-31T11:23:16.065Z</time>
      </trkpt>
      <trkpt lat="45.05005" lon="5.65265">
        <ele>750</ele>
        <time>2016-05-31T11:23:35.065Z</time>
      </trkpt>
      <trkpt lat="45.05038" lon="5.65311">
        <ele>744</ele>
        <time>2016-05-31T11:24:34.069Z</time>
      </trkpt>
      <trkpt lat="45.05055" lon="5.65323">
        <ele>739</ele>
        <time>2016-05-31T11:24:50.07Z</time>
      </trkpt>
      <trkpt lat="45.05069" lon="5.65342">
        <ele>727</ele>
        <time>2016-05-31T11:25:04.105Z</time>
      </trkpt>
      <trkpt lat="45.05072" lon="5.65361">
        <ele>721</ele>
        <time>2016-05-31T11:25:18.065Z</time>
      </trkpt>
      <trkpt lat="45.05081" lon="5.65376">
        <ele>725</ele>
        <time>2016-05-31T11:25:27.066Z</time>
      </trkpt>
      <trkpt lat="45.05067" lon="5.65406">
        <ele>721</ele>
        <time>2016-05-31T11:26:17.07Z</time>
      </trkpt>
      <trkpt lat="45.05036" lon="5.65453">
        <ele>714</ele>
        <time>2016-05-31T11:27:10.073Z</time>
      </trkpt>
      <trkpt lat="45.04994" lon="5.65448">
        <ele>699</ele>
        <time>2016-05-31T11:28:10.075Z</time>
      </trkpt>
      <trkpt lat="45.04978" lon="5.65453">
        <ele>695</ele>
        <time>2016-05-31T11:29:11.074Z</time>
      </trkpt>
      <trkpt lat="45.0498" lon="5.65452">
        <ele>691</ele>
        <time>2016-05-31T11:30:12.07Z</time>
      </trkpt>
      <trkpt lat="45.04978" lon="5.65452">
        <ele>690</ele>
        <time>2016-05-31T11:31:13.069Z</time>
      </trkpt>
      <trkpt lat="45.04978" lon="5.65452">
        <ele>690</ele>
        <time>2016-05-31T11:32:13.071Z</time>
      </trkpt>
      <trkpt lat="45.04981" lon="5.65455">
        <ele>690</ele>
        <time>2016-05-31T11:33:13.08Z</time>
      </trkpt>
      <trkpt lat="45.04995" lon="5.6548">
        <ele>694</ele>
        <time>2016-05-31T11:34:14.065Z</time>
      </trkpt>
      <trkpt lat="45.05033" lon="5.65517">
        <ele>681</ele>
        <time>2016-05-31T11:35:07.068Z</time>
      </trkpt>
      <trkpt lat="45.05044" lon="5.65529">
        <ele>677</ele>
        <time>2016-05-31T11:35:22.065Z</time>
      </trkpt>
      <trkpt lat="45.05084" lon="5.65565">
        <ele>665</ele>
        <time>2016-05-31T11:36:11.07Z</time>
      </trkpt>
      <trkpt lat="45.05125" lon="5.6556">
        <ele>663</ele>
        <time>2016-05-31T11:37:11.074Z</time>
      </trkpt>
      <trkpt lat="45.05162" lon="5.65595">
        <ele>651</ele>
        <time>2016-05-31T11:37:48.068Z</time>
      </trkpt>
      <trkpt lat="45.05199" lon="5.65634">
        <ele>638</ele>
        <time>2016-05-31T11:38:31.069Z</time>
      </trkpt>
      <trkpt lat="45.05239" lon="5.65667">
        <ele>626</ele>
        <time>2016-05-31T11:39:25.068Z</time>
      </trkpt>
      <trkpt lat="45.05267" lon="5.65714">
        <ele>615</ele>
        <time>2016-05-31T11:40:06.065Z</time>
      </trkpt>
      <trkpt lat="45.05285" lon="5.65723">
        <ele>611</ele>
        <time>2016-05-31T11:40:23.065Z</time>
      </trkpt>
      <trkpt lat="45.05313" lon="5.65768">
        <ele>609</ele>
        <time>2016-05-31T11:41:07.065Z</time>
      </trkpt>
      <trkpt lat="45.05327" lon="5.65778">
        <ele>606</ele>
        <time>2016-05-31T11:41:21.065Z</time>
      </trkpt>
      <trkpt lat="45.05355" lon="5.65828">
        <ele>600</ele>
        <time>2016-05-31T11:42:15.075Z</time>
      </trkpt>
      <trkpt lat="45.05396" lon="5.65857">
        <ele>592</ele>
        <time>2016-05-31T11:43:03.07Z</time>
      </trkpt>
      <trkpt lat="45.05407" lon="5.65862">
        <ele>587</ele>
        <time>2016-05-31T11:44:03.07Z</time>
      </trkpt>
      <trkpt lat="45.05407" lon="5.65862">
        <ele>587</ele>
        <time>2016-05-31T11:45:03.074Z</time>
      </trkpt>
      <trkpt lat="45.05405" lon="5.6586">
        <ele>584</ele>
        <time>2016-05-31T11:46:04.074Z</time>
      </trkpt>
      <trkpt lat="45.05405" lon="5.65859">
        <ele>582</ele>
        <time>2016-05-31T11:47:05.07Z</time>
      </trkpt>
      <trkpt lat="45.05411" lon="5.6588">
        <ele>582</ele>
        <time>2016-05-31T11:48:06.068Z</time>
      </trkpt>
      <trkpt lat="45.05446" lon="5.65928">
        <ele>579</ele>
        <time>2016-05-31T11:48:55.066Z</time>
      </trkpt>
      <trkpt lat="45.05481" lon="5.65969">
        <ele>571</ele>
        <time>2016-05-31T11:49:53.066Z</time>
      </trkpt>
      <trkpt lat="45.05515" lon="5.66013">
        <ele>570</ele>
        <time>2016-05-31T11:50:31.069Z</time>
      </trkpt>
      <trkpt lat="45.05549" lon="5.66054">
        <ele>554</ele>
        <time>2016-05-31T11:51:13.065Z</time>
      </trkpt>
      <trkpt lat="45.05563" lon="5.66072">
        <ele>557</ele>
        <time>2016-05-31T11:51:31.065Z</time>
      </trkpt>
      <trkpt lat="45.05577" lon="5.66093">
        <ele>552</ele>
        <time>2016-05-31T11:51:47.066Z</time>
      </trkpt>
      <trkpt lat="45.05617" lon="5.66139">
        <ele>543</ele>
        <time>2016-05-31T11:52:33.065Z</time>
      </trkpt>
      <trkpt lat="45.05637" lon="5.66149">
        <ele>537</ele>
        <time>2016-05-31T11:52:50.065Z</time>
      </trkpt>
      <trkpt lat="45.05662" lon="5.66153">
        <ele>534</ele>
        <time>2016-05-31T11:53:09.064Z</time>
      </trkpt>
      <trkpt lat="45.05676" lon="5.66157">
        <ele>531</ele>
        <time>2016-05-31T11:53:16.065Z</time>
      </trkpt>
      <trkpt lat="45.05722" lon="5.66175">
        <ele>524</ele>
        <time>2016-05-31T11:54:11.065Z</time>
      </trkpt>
      <trkpt lat="45.0576" lon="5.6619">
        <ele>517</ele>
        <time>2016-05-31T11:55:11.069Z</time>
      </trkpt>
      <trkpt lat="45.05761" lon="5.66189">
        <ele>510</ele>
        <time>2016-05-31T11:56:11.069Z</time>
      </trkpt>
      <trkpt lat="45.05761" lon="5.66184">
        <ele>503</ele>
        <time>2016-05-31T11:57:12.066Z</time>
      </trkpt>
      <trkpt lat="45.05765" lon="5.66186">
        <ele>506</ele>
        <time>2016-05-31T11:58:12.069Z</time>
      </trkpt>
      <trkpt lat="45.05761" lon="5.66192">
        <ele>505</ele>
        <time>2016-05-31T11:59:12.07Z</time>
      </trkpt>
      <trkpt lat="45.0575" lon="5.66189">
        <ele>506</ele>
        <time>2016-05-31T12:00:13.064Z</time>
      </trkpt>
      <trkpt lat="45.05707" lon="5.66202">
        <ele>507</ele>
        <time>2016-05-31T12:01:13.064Z</time>
      </trkpt>
      <trkpt lat="45.05678" lon="5.66213">
        <ele>498</ele>
        <time>2016-05-31T12:01:34.061Z</time>
      </trkpt>
      <trkpt lat="45.05664" lon="5.66216">
        <ele>490</ele>
        <time>2016-05-31T12:01:53.061Z</time>
      </trkpt>
      <trkpt lat="45.05629" lon="5.6622">
        <ele>482</ele>
        <time>2016-05-31T12:02:53.068Z</time>
      </trkpt>
      <trkpt lat="45.05628" lon="5.6622">
        <ele>482</ele>
        <time>2016-05-31T12:03:54.068Z</time>
      </trkpt>
      <trkpt lat="45.0563" lon="5.66218">
        <ele>481</ele>
        <time>2016-05-31T12:04:55.07Z</time>
      </trkpt>
      <trkpt lat="45.0562" lon="5.66204">
        <ele>480</ele>
        <time>2016-05-31T12:05:50.07Z</time>
      </trkpt>
      <trkpt lat="45.05566" lon="5.66168">
        <ele>482</ele>
        <time>2016-05-31T12:06:51.064Z</time>
      </trkpt>
      <trkpt lat="45.0552" lon="5.66145">
        <ele>480</ele>
        <time>2016-05-31T12:07:47.065Z</time>
      </trkpt>
      <trkpt lat="45.05503" lon="5.6614">
        <ele>471</ele>
        <time>2016-05-31T12:08:47.068Z</time>
      </trkpt>
      <trkpt lat="45.05502" lon="5.66141">
        <ele>473</ele>
        <time>2016-05-31T12:09:48.069Z</time>
      </trkpt>
      <trkpt lat="45.05503" lon="5.66138">
        <ele>470</ele>
        <time>2016-05-31T12:10:48.07Z</time>
      </trkpt>
      <trkpt lat="45.05508" lon="5.66133">
        <ele>466</ele>
        <time>2016-05-31T12:11:49.066Z</time>
      </trkpt>
      <trkpt lat="45.05503" lon="5.66139">
        <ele>472</ele>
        <time>2016-05-31T12:12:49.066Z</time>
      </trkpt>
      <trkpt lat="45.05499" lon="5.66132">
        <ele>469</ele>
        <time>2016-05-31T12:13:50.065Z</time>
      </trkpt>
      <trkpt lat="45.05462" lon="5.66128">
        <ele>463</ele>
        <time>2016-05-31T12:14:37.063Z</time>
      </trkpt>
      <trkpt lat="45.05416" lon="5.66119">
        <ele>451</ele>
        <time>2016-05-31T12:15:25.063Z</time>
      </trkpt>
      <trkpt lat="45.05379" lon="5.66145">
        <ele>447</ele>
        <time>2016-05-31T12:16:25.064Z</time>
      </trkpt>
      <trkpt lat="45.05365" lon="5.66158">
        <ele>437</ele>
        <time>2016-05-31T12:16:34.06Z</time>
      </trkpt>
      <trkpt lat="45.05366" lon="5.66177">
        <ele>435</ele>
        <time>2016-05-31T12:16:44.061Z</time>
      </trkpt>
      <trkpt lat="45.05377" lon="5.66191">
        <ele>431</ele>
        <time>2016-05-31T12:16:55.061Z</time>
      </trkpt>
      <trkpt lat="45.05392" lon="5.66199">
        <ele>430</ele>
        <time>2016-05-31T12:17:08.061Z</time>
      </trkpt>
      <trkpt lat="45.05437" lon="5.66226">
        <ele>422</ele>
        <time>2016-05-31T12:17:52.068Z</time>
      </trkpt>
      <trkpt lat="45.05455" lon="5.66245">
        <ele>421</ele>
        <time>2016-05-31T12:18:13.063Z</time>
      </trkpt>
      <trkpt lat="45.05481" lon="5.66277">
        <ele>417</ele>
        <time>2016-05-31T12:18:45.063Z</time>
      </trkpt>
      <trkpt lat="45.05508" lon="5.66327">
        <ele>415</ele>
        <time>2016-05-31T12:19:36.064Z</time>
      </trkpt>
      <trkpt lat="45.05553" lon="5.66367">
        <ele>411</ele>
        <time>2016-05-31T12:20:24.06Z</time>
      </trkpt>
      <trkpt lat="45.05596" lon="5.664">
        <ele>407</ele>
        <time>2016-05-31T12:21:10.065Z</time>
      </trkpt>
      <trkpt lat="45.05637" lon="5.66437">
        <ele>402</ele>
        <time>2016-05-31T12:21:57.064Z</time>
      </trkpt>
      <trkpt lat="45.05673" lon="5.66477">
        <ele>396</ele>
        <time>2016-05-31T12:22:41.063Z</time>
      </trkpt>
      <trkpt lat="45.05696" lon="5.66513">
        <ele>392</ele>
        <time>2016-05-31T12:23:07.06Z</time>
      </trkpt>
      <trkpt lat="45.05714" lon="5.66529">
        <ele>387</ele>
        <time>2016-05-31T12:23:23.061Z</time>
      </trkpt>
      <trkpt lat="45.05729" lon="5.66534">
        <ele>385</ele>
        <time>2016-05-31T12:24:24.061Z</time>
      </trkpt>
      <trkpt lat="45.05729" lon="5.66534">
        <ele>385</ele>
        <time>2016-05-31T12:25:24.063Z</time>
      </trkpt>
      <trkpt lat="45.05731" lon="5.66527">
        <ele>376</ele>
        <time>2016-05-31T12:26:24.075Z</time>
      </trkpt>
      <trkpt lat="45.05725" lon="5.66534">
        <ele>376</ele>
        <time>2016-05-31T12:27:25.061Z</time>
      </trkpt>
      <trkpt lat="45.05725" lon="5.6654">
        <ele>371</ele>
        <time>2016-05-31T12:28:25.061Z</time>
      </trkpt>
      <trkpt lat="45.05722" lon="5.6656">
        <ele>364</ele>
        <time>2016-05-31T12:28:38.058Z</time>
      </trkpt>
      <trkpt lat="45.05716" lon="5.6658">
        <ele>364</ele>
        <time>2016-05-31T12:28:50.059Z</time>
      </trkpt>
      <trkpt lat="45.05714" lon="5.666">
        <ele>365</ele>
        <time>2016-05-31T12:29:00.064Z</time>
      </trkpt>
      <trkpt lat="45.05701" lon="5.6663">
        <ele>364</ele>
        <time>2016-05-31T12:29:19.06Z</time>
      </trkpt>
      <trkpt lat="45.05693" lon="5.66646">
        <ele>360</ele>
        <time>2016-05-31T12:29:34.06Z</time>
      </trkpt>
      <trkpt lat="45.05687" lon="5.66666">
        <ele>362</ele>
        <time>2016-05-31T12:29:45.06Z</time>
      </trkpt>
      <trkpt lat="45.05682" lon="5.66714">
        <ele>360</ele>
        <time>2016-05-31T12:30:13.06Z</time>
      </trkpt>
      <trkpt lat="45.05677" lon="5.66735">
        <ele>362</ele>
        <time>2016-05-31T12:30:28.06Z</time>
      </trkpt>
      <trkpt lat="45.05663" lon="5.66743">
        <ele>366</ele>
        <time>2016-05-31T12:30:35.064Z</time>
      </trkpt>
      <trkpt lat="45.05624" lon="5.66748">
        <ele>364</ele>
        <time>2016-05-31T12:31:36.06Z</time>
      </trkpt>
      <trkpt lat="45.05618" lon="5.66765">
        <ele>357</ele>
        <time>2016-05-31T12:31:55.055Z</time>
      </trkpt>
      <trkpt lat="45.05604" lon="5.66799">
        <ele>368</ele>
        <time>2016-05-31T12:32:55.06Z</time>
      </trkpt>
      <trkpt lat="45.0561" lon="5.66836">
        <ele>366</ele>
        <time>2016-05-31T12:33:56.056Z</time>
      </trkpt>
      <trkpt lat="45.05602" lon="5.66853">
        <ele>366</ele>
        <time>2016-05-31T12:34:10.058Z</time>
      </trkpt>
      <trkpt lat="45.05606" lon="5.66877">
        <ele>369</ele>
        <time>2016-05-31T12:35:10.065Z</time>
      </trkpt>
      <trkpt lat="45.05605" lon="5.66896">
        <ele>382</ele>
        <time>2016-05-31T12:36:11.058Z</time>
      </trkpt>
      <trkpt lat="45.05607" lon="5.66891">
        <ele>382</ele>
        <time>2016-05-31T12:37:11.06Z</time>
      </trkpt>
      <trkpt lat="45.05607" lon="5.66891">
        <ele>382</ele>
        <time>2016-05-31T12:38:12.059Z</time>
      </trkpt>
      <trkpt lat="45.05607" lon="5.66891">
        <ele>382</ele>
        <time>2016-05-31T12:39:12.059Z</time>
      </trkpt>
      <trkpt lat="45.05596" lon="5.6687">
        <ele>397</ele>
        <time>2016-05-31T12:39:58.056Z</time>
      </trkpt>
      <trkpt lat="45.05612" lon="5.66824">
        <ele>380</ele>
        <time>2016-05-31T12:40:58.066Z</time>
      </trkpt>
      <trkpt lat="45.05613" lon="5.66824">
        <ele>380</ele>
        <time>2016-05-31T12:41:17.059Z</time>
      </trkpt>
    </trkseg>
  </trk>
</gpx>